Time;durP1;ratioP1;P1;durP2;ratioP2;P2;SDS_P1;SDS_P2;PMS_P1;PMS_P2;Temp;Humidity;BMP_temperature;BMP_pressure;BME280_temperature;BME280_humidity;BME280_pressure;Samples;Min_cycle;Max_cycle;Signal;HPM_P1;HPM_P2
2022/06/03 00:02:32;;;;;;;;;;;;;;;13.76;64.60;99792.53;1674825;84;20135;-61
2022/06/03 00:05:20;;;;;;;;;;;;;;;13.74;64.18;99790.45;1693694;84;20163;-61
2022/06/03 00:08:01;;;;;;;;;;;;;;;13.72;64.30;99790.19;1694594;84;20133;-61
2022/06/03 00:10:46;;;;;;;;;;;;;;;13.66;64.99;99796.69;1692499;84;20130;-61
2022/06/03 00:13:21;;;;;;;;;;;;;;;13.60;65.17;99795.72;1690419;84;20472;-61
2022/06/03 00:16:02;;;;;;;;;;;;;;;13.57;65.35;99798.53;1685864;84;20140;-61
2022/06/03 00:18:48;;;;;;;;;;;;;;;13.54;66.04;99800.06;1687969;84;20136;-60
2022/06/03 00:21:14;;;;;;;;;;;;;;;13.50;65.14;99798.52;1690758;84;20547;-62
2022/06/03 00:24:01;;;;;;;;;;;;;;;13.46;65.40;99799.17;1692130;84;20557;-62
2022/06/03 00:27:05;;;;;;;;;;;;;;;13.43;66.00;99796.25;1693693;84;20154;-61
2022/06/03 00:29:43;;;;;;;;;;;;;;;13.46;65.45;99791.72;1695213;84;20163;-61
2022/06/03 00:32:15;;;;;;;;;;;;;;;13.38;66.11;99796.98;1686379;84;20234;-62
2022/06/03 00:35:09;;;;;;;;;;;;;;;13.37;65.62;99798.39;1691805;84;20118;-62
2022/06/03 00:37:38;;;;;;;;;;;;;;;13.35;66.71;99795.87;1693398;84;20424;-61
2022/06/03 00:40:14;;;;;;;;;;;;;;;13.32;66.59;99796.52;1688575;84;20112;-61
2022/06/03 00:43:01;;;;;;;;;;;;;;;13.32;67.36;99795.20;1677253;84;20115;-62
2022/06/03 00:45:47;;;;;;;;;;;;;;;13.30;66.51;99798.34;1700534;84;20147;-61
2022/06/03 00:48:37;;;;;;;;;;;;;;;13.28;67.24;99799.78;1689035;84;20413;-61
2022/06/03 00:51:19;;;;;;;;;;;;;;;13.25;66.22;99792.86;1632207;87;20138;-61
2022/06/03 00:54:22;;;;;;;;;;;;;;;13.23;66.79;99793.91;1679315;85;20436;-61
2022/06/03 00:56:57;;;;;;;;;;;;;;;13.23;66.82;99796.55;1689867;84;20143;-61
2022/06/03 00:59:49;;;;;;;;;;;;;;;13.21;67.23;99788.70;1699020;84;20426;-61
2022/06/03 01:02:52;;;;;;;;;;;;;;;13.22;66.21;99798.80;1694646;84;20104;-62
2022/06/03 01:05:43;;;;;;;;;;;;;;;13.18;66.98;99798.59;1686059;85;20151;-61
2022/06/03 01:08:27;;;;;;;;;;;;;;;13.17;66.90;99795.56;1686961;85;20445;-62
2022/06/03 01:11:12;;;;;;;;;;;;;;;13.15;66.21;99793.04;1676630;84;20433;-61
2022/06/03 01:14:04;;;;;;;;;;;;;;;13.11;66.96;99795.93;1698436;84;20116;-61
2022/06/03 01:16:49;;;;;;;;;;;;;;;13.08;67.67;99794.78;1686127;85;20107;-62
2022/06/03 01:19:55;;;;;;;;;;;;;;;13.04;67.60;99792.78;1684870;84;20519;-62
2022/06/03 01:22:36;;;;;;;;;;;;;;;12.99;67.33;99797.02;1694328;84;20225;-61
2022/06/03 01:25:21;;;;;;;;;;;;;;;12.93;68.11;99797.35;1681767;85;20416;-61
2022/06/03 01:28:02;;;;;;;;;;;;;;;12.88;68.12;99790.19;1687065;84;20116;-62
2022/06/03 01:30:50;;;;;;;;;;;;;;;12.87;68.47;99792.44;1683873;84;20416;-61
2022/06/03 01:33:48;;;;;;;;;;;;;;;12.84;67.98;99788.64;1679908;84;20397;-61
2022/06/03 01:36:29;;;;;;;;;;;;;;;12.81;69.02;99787.52;1663272;86;20162;-61
2022/06/03 01:39:15;;;;;;;;;;;;;;;12.78;68.25;99783.72;1696792;84;20327;-62
2022/06/03 01:42:06;;;;;;;;;;;;;;;12.74;68.28;99788.32;1693127;84;20392;-62
2022/06/03 01:45:12;;;;;;;;;;;;;;;12.73;69.29;99784.45;1688980;84;20404;-61
2022/06/03 01:47:50;;;;;;;;;;;;;;;12.66;68.62;99773.37;1697492;84;20127;-60
2022/06/03 01:50:28;;;;;;;;;;;;;;;12.71;68.51;99790.28;1680906;84;20226;-61
2022/06/03 01:53:20;;;;;;;;;;;;;;;12.65;70.05;99785.72;1666151;84;20420;-61
2022/06/03 01:55:52;;;;;;;;;;;;;;;12.65;69.45;99789.68;1696537;84;20111;-60
2022/06/03 01:58:31;;;;;;;;;;;;;;;12.61;69.33;99784.20;1692182;84;20111;-61
2022/06/03 02:01:12;;;;;;;;;;;;;;;12.60;69.73;99790.88;1692264;84;20112;-61
2022/06/03 02:04:02;;;;;;;;;;;;;;;12.56;69.72;99781.44;1687121;84;20116;-61
2022/06/03 02:06:48;;;;;;;;;;;;;;;12.55;69.78;99785.88;1685507;84;20166;-62
2022/06/03 02:09:42;;;;;;;;;;;;;;;12.53;69.27;99784.23;1689389;84;20101;-61
2022/06/03 02:12:17;;;;;;;;;;;;;;;12.49;69.36;99784.88;1690638;85;20142;-62
2022/06/03 02:15:01;;;;;;;;;;;;;;;12.48;69.05;99783.19;1683448;85;20109;-62
2022/06/03 02:18:05;;;;;;;;;;;;;;;12.47;68.87;99784.11;1683369;85;20403;-62
2022/06/03 02:21:07;;;;;;;;;;;;;;;12.46;69.70;99788.99;1692286;84;20109;-62
2022/06/03 02:23:59;;;;;;;;;;;;;;;12.43;70.59;99791.82;1691185;84;20117;-62
2022/06/03 02:26:48;;;;;;;;;;;;;;;12.39;70.04;99789.81;1691977;84;20101;-61
2022/06/03 02:32:35;;;;;;;;;;;;;;;12.37;70.87;99786.86;1689408;84;20407;-61
2022/06/03 02:35:10;;;;;;;;;;;;;;;12.35;70.73;99790.05;1690379;84;20117;-62
2022/06/03 02:38:07;;;;;;;;;;;;;;;12.32;71.23;99789.77;1689842;84;20107;-62
2022/06/03 02:43:26;;;;;;;;;;;;;;;12.32;71.33;99784.97;1722658;80;20433;-53
2022/06/03 02:46:12;;;;;;;;;;;;;;;12.29;71.52;99788.13;1724057;83;20124;-45
2022/06/03 02:49:16;;;;;;;;;;;;;;;12.31;71.70;99783.25;1725594;83;20563;-48
2022/06/03 02:52:02;;;;;;;;;;;;;;;12.31;71.92;99790.69;1729504;82;20103;-48
2022/06/03 02:54:43;;;;;;;;;;;;;;;12.28;71.92;99791.72;1737718;82;20214;-47
2022/06/03 02:57:27;;;;;;;;;;;;;;;12.29;70.62;99797.36;1724632;83;20153;-52
2022/06/03 03:00:12;;;;;;;;;;;;;;;12.34;70.82;99797.60;1725991;83;20163;-53
2022/06/03 03:02:50;;;;;;;;;;;;;;;12.36;71.64;99797.05;1724421;82;20131;-45
2022/06/03 03:05:39;;;;;;;;;;;;;;;12.37;71.19;99796.09;1728751;82;20202;-44
2022/06/03 03:08:29;;;;;;;;;;;;;;;12.34;71.92;99806.36;1728191;82;20139;-50
2022/06/03 03:11:10;;;;;;;;;;;;;;;12.38;72.19;99810.52;1724874;83;20132;-50
2022/06/03 03:14:11;;;;;;;;;;;;;;;12.40;71.92;99811.77;1725129;83;20160;-51
2022/06/03 03:16:55;;;;;;;;;;;;;;;12.43;71.15;99817.72;1733213;82;20225;-50
2022/06/03 03:19:31;;;;;;;;;;;;;;;12.47;71.37;99814.45;1704192;82;20148;-48
2022/06/03 03:22:16;;;;;;;;;;;;;;;12.50;71.50;99820.89;1732631;82;20140;-51
2022/06/03 03:25:19;;;;;;;;;;;;;;;12.51;71.35;99823.89;1718169;83;20254;-47
2022/06/03 03:28:12;;;;;;;;;;;;;;;12.54;71.09;99816.30;1719011;83;20140;-49
2022/06/03 03:30:41;;;;;;;;;;;;;;;12.57;71.60;99817.42;1716713;83;20132;-45
2022/06/03 03:33:34;;;;;;;;;;;;;;;12.60;70.49;99825.17;1731051;82;20416;-47
2022/06/03 03:36:04;;;;;;;;;;;;;;;12.62;70.45;99832.05;1734268;82;20496;-54
2022/06/03 03:38:57;;;;;;;;;;;;;;;12.63;71.21;99833.77;1727225;82;20515;-48
2022/06/03 03:41:58;;;;;;;;;;;;;;;12.66;71.04;99837.57;1724422;82;20482;-48
2022/06/03 03:44:45;;;;;;;;;;;;;;;12.70;70.06;99834.30;1724185;82;20144;-47
2022/06/03 03:47:40;;;;;;;;;;;;;;;12.74;71.66;99832.34;1727211;83;20160;-54
2022/06/03 03:50:35;;;;;;;;;;;;;;;12.77;71.32;99837.42;1728311;83;20452;-49
2022/06/03 03:53:29;;;;;;;;;;;;;;;12.79;70.88;99838.22;1712527;83;20140;-53
2022/06/03 03:56:14;;;;;;;;;;;;;;;12.84;71.01;99850.67;1729937;82;20100;-58
2022/06/03 03:58:46;;;;;;;;;;;;;;;12.84;70.11;99851.54;1725487;82;20124;-44
2022/06/03 04:01:32;;;;;;;;;;;;;;;12.87;70.27;99851.83;1723456;82;20210;-53
2022/06/03 04:04:27;;;;;;;;;;;;;;;12.89;70.11;99850.42;1730749;82;20108;-47
2022/06/03 04:07:16;;;;;;;;;;;;;;;12.93;70.58;99852.78;1730762;82;20136;-50
2022/06/03 04:10:04;;;;;;;;;;;;;;;12.93;68.80;99850.15;1718850;83;20562;-48
2022/06/03 04:13:02;;;;;;;;;;;;;;;12.93;68.65;99847.98;1725746;83;20143;-46
2022/06/03 04:15:54;;;;;;;;;;;;;;;12.96;68.50;99854.42;1724928;83;20128;-56
2022/06/03 04:18:29;;;;;;;;;;;;;;;12.96;68.07;99852.62;1726361;82;20124;-47
2022/06/03 04:21:16;;;;;;;;;;;;;;;13.00;68.65;99853.30;1707584;82;20159;-48
2022/06/03 04:24:03;;;;;;;;;;;;;;;13.04;68.33;99854.83;1727212;82;20437;-52
2022/06/03 04:26:49;;;;;;;;;;;;;;;13.10;68.31;99862.87;1725587;83;20124;-53
2022/06/03 04:29:35;;;;;;;;;;;;;;;13.10;68.78;99858.91;1693098;83;20155;-52
2022/06/03 04:32:21;;;;;;;;;;;;;;;13.10;66.94;99860.23;1729949;83;20162;-48
2022/06/03 04:35:02;;;;;;;;;;;;;;;13.11;68.11;99868.06;1730342;82;20140;-47
2022/06/03 04:37:40;;;;;;;;;;;;;;;13.17;68.42;99869.50;1726300;82;20103;-51
2022/06/03 04:40:35;;;;;;;;;;;;;;;13.19;68.58;99866.33;1729936;82;20136;-46
2022/06/03 04:43:16;;;;;;;;;;;;;;;13.21;67.98;99863.97;1720200;82;20132;-49
2022/06/03 04:46:04;;;;;;;;;;;;;;;13.25;68.70;99871.25;1720816;82;20140;-48
2022/06/03 04:48:56;;;;;;;;;;;;;;;13.32;67.51;99874.44;1736381;82;20135;-46
2022/06/03 04:51:28;;;;;;;;;;;;;;;13.38;67.78;99876.23;1695480;81;20467;-49
2022/06/03 04:54:14;;;;;;;;;;;;;;;13.46;66.96;99886.36;1726668;83;20155;-46
2022/06/03 04:56:52;;;;;;;;;;;;;;;13.45;66.63;99875.42;1720969;83;20495;-50
2022/06/03 04:59:27;;;;;;;;;;;;;;;13.51;66.54;99888.75;1728928;83;20522;-50
2022/06/03 05:02:20;;;;;;;;;;;;;;;13.54;66.42;99880.17;1729954;82;20456;-45
2022/06/03 05:04:55;;;;;;;;;;;;;;;13.59;66.47;99883.88;1724931;82;20451;-43
2022/06/03 05:07:41;;;;;;;;;;;;;;;13.65;66.92;99882.67;1729573;83;20149;-44
2022/06/03 05:10:36;;;;;;;;;;;;;;;13.63;65.78;99888.88;1728388;83;20144;-49
2022/06/03 05:13:32;;;;;;;;;;;;;;;13.65;65.42;99887.95;1725062;83;20133;-49
2022/06/03 05:16:07;;;;;;;;;;;;;;;13.66;63.74;99891.84;1729620;82;20140;-56
2022/06/03 05:18:55;;;;;;;;;;;;;;;13.65;63.35;99905.98;1705296;82;20123;-51
2022/06/03 05:21:36;;;;;;;;;;;;;;;13.65;63.08;99899.37;1688703;82;20127;-48
2022/06/03 05:24:28;;;;;;;;;;;;;;;13.67;63.00;99906.73;1732502;82;20475;-47
2022/06/03 05:27:12;;;;;;;;;;;;;;;13.72;63.04;99907.80;1731532;82;20139;-49
2022/06/03 05:29:47;;;;;;;;;;;;;;;13.76;63.52;99904.88;1730084;82;20124;-53
2022/06/03 05:32:25;;;;;;;;;;;;;;;13.80;64.02;99901.58;1727307;82;20436;-49
2022/06/03 05:34:57;;;;;;;;;;;;;;;13.85;64.31;99903.48;1728572;82;20164;-45
2022/06/03 05:38:00;;;;;;;;;;;;;;;13.91;64.96;99901.78;1726427;82;20132;-56
2022/06/03 05:40:55;;;;;;;;;;;;;;;13.96;63.27;99906.81;1719482;82;20124;-45
2022/06/03 05:43:38;;;;;;;;;;;;;;;14.03;62.13;99904.67;1730248;82;20124;-52
2022/06/03 05:46:10;;;;;;;;;;;;;;;14.10;61.60;99904.65;1724641;82;20155;-53
2022/06/03 05:49:03;;;;;;;;;;;;;;;14.15;61.69;99903.91;1730324;82;20253;-48
2022/06/03 05:51:35;;;;;;;;;;;;;;;14.19;60.95;99904.97;1720915;82;20127;-48
2022/06/03 05:54:16;;;;;;;;;;;;;;;14.26;60.76;99904.13;1726633;83;20140;-53
2022/06/03 05:56:56;;;;;;;;;;;;;;;14.32;60.36;99902.91;1717280;82;20127;-55
2022/06/03 05:59:57;;;;;;;;;;;;;;;14.36;59.98;99899.96;1723629;82;20664;-52
2022/06/03 06:02:29;;;;;;;;;;;;;;;14.42;59.49;99903.18;1738434;82;20103;-47
2022/06/03 06:05:26;;;;;;;;;;;;;;;14.49;59.09;99907.99;1736627;82;20579;-52
2022/06/03 06:07:58;;;;;;;;;;;;;;;14.57;59.51;99907.09;1729841;81;20445;-45
2022/06/03 06:10:47;;;;;;;;;;;;;;;14.63;58.93;99912.95;1718709;82;20147;-53
2022/06/03 06:13:22;;;;;;;;;;;;;;;14.71;58.51;99910.19;1730643;82;20163;-46
2022/06/03 06:16:07;;;;;;;;;;;;;;;14.78;59.47;99908.86;1733400;82;20152;-50
2022/06/03 06:18:47;;;;;;;;;;;;;;;14.84;59.25;99910.75;1730252;82;20144;-51
2022/06/03 06:21:33;;;;;;;;;;;;;;;14.91;59.33;99912.91;1728442;82;20472;-48
2022/06/03 06:24:18;;;;;;;;;;;;;;;15.00;59.56;99915.92;1716634;82;20453;-54
2022/06/03 06:26:50;;;;;;;;;;;;;;;15.08;58.17;99913.62;1718779;83;20124;-54
2022/06/03 06:29:28;;;;;;;;;;;;;;;15.16;58.54;99910.02;1723132;83;20165;-48
2022/06/03 06:32:30;;;;;;;;;;;;;;;15.25;59.07;99912.08;1726637;83;20156;-50
2022/06/03 06:35:19;;;;;;;;;;;;;;;15.34;59.15;99910.15;1722644;82;20219;-52
2022/06/03 06:38:08;;;;;;;;;;;;;;;15.41;57.37;99913.71;1726625;82;20293;-50
2022/06/03 06:40:49;;;;;;;;;;;;;;;15.48;58.44;99909.26;1725608;82;20115;-47
2022/06/03 06:43:43;;;;;;;;;;;;;;;15.56;57.59;99902.12;1739666;82;20103;-50
2022/06/03 06:46:22;;;;;;;;;;;;;;;15.65;58.20;99901.50;1725535;82;20140;-45
2022/06/03 06:48:51;;;;;;;;;;;;;;;15.73;57.69;99907.16;1738345;82;20159;-44
2022/06/03 06:51:26;;;;;;;;;;;;;;;15.79;57.71;99905.05;1729842;83;20176;-45
2022/06/03 06:53:55;;;;;;;;;;;;;;;15.83;55.42;99899.45;1734088;82;20099;-51
2022/06/03 06:56:45;;;;;;;;;;;;;;;15.92;56.48;99907.27;1720662;82;20132;-49
2022/06/03 06:59:18;;;;;;;;;;;;;;;15.99;57.03;99905.91;1726828;82;20116;-48
2022/06/03 07:01:53;;;;;;;;;;;;;;;16.05;56.02;99904.14;1740152;82;20111;-54
2022/06/03 07:04:25;;;;;;;;;;;;;;;16.12;54.38;99901.45;1739937;82;20111;-50
2022/06/03 07:07:00;;;;;;;;;;;;;;;16.21;53.97;99903.95;1733615;82;20139;-53
2022/06/03 07:09:38;;;;;;;;;;;;;;;16.27;54.23;99894.23;1727075;82;20127;-47
2022/06/03 07:12:13;;;;;;;;;;;;;;;16.33;54.04;99893.44;1728337;83;20469;-56
2022/06/03 07:14:56;;;;;;;;;;;;;;;16.37;52.67;99884.30;1720787;82;20139;-50
2022/06/03 07:20:28;;;;;;;;;;;;;;;16.51;52.96;99883.69;1725935;82;20421;-49
2022/06/03 07:22:56;;;;;;;;;;;;;;;16.60;52.12;99882.20;1716955;82;20172;-50
2022/06/03 07:25:46;;;;;;;;;;;;;;;16.67;52.11;99881.29;1719459;83;20152;-49
2022/06/03 07:28:28;;;;;;;;;;;;;;;16.73;49.27;99891.46;1718580;83;20144;-42
2022/06/03 07:31:13;;;;;;;;;;;;;;;16.80;50.05;99882.10;1719751;83;20148;-48
2022/06/03 07:33:51;;;;;;;;;;;;;;;16.88;49.60;99887.76;1728345;82;20150;-49
2022/06/03 07:36:37;;;;;;;;;;;;;;;16.98;50.66;99883.94;1734813;81;20139;-50
2022/06/03 07:39:43;;;;;;;;;;;;;;;17.07;49.65;99887.75;1728292;82;20133;-52
2022/06/03 07:42:18;;;;;;;;;;;;;;;17.16;47.93;99896.86;1730134;82;20124;-51
2022/06/03 07:44:50;;;;;;;;;;;;;;;17.22;46.54;99888.43;1728365;83;20131;-46
2022/06/03 07:47:18;;;;;;;;;;;;;;;17.31;48.63;99889.08;1731722;83;20132;-53
2022/06/03 07:49:47;;;;;;;;;;;;;;;17.45;49.33;99886.73;1725344;82;20436;-48
2022/06/03 07:52:16;;;;;;;;;;;;;;;17.56;45.78;99888.59;1732123;82;20444;-50
2022/06/03 07:54:45;;;;;;;;;;;;;;;17.70;47.67;99890.20;1731116;82;20234;-50
2022/06/03 07:57:20;;;;;;;;;;;;;;;17.79;45.97;99881.52;1718795;83;20160;-49
2022/06/03 07:59:46;;;;;;;;;;;;;;;17.89;47.92;99886.55;1721557;82;20131;-50
2022/06/03 08:02:15;;;;;;;;;;;;;;;18.02;48.43;99884.63;1730225;83;20133;-53
2022/06/03 08:04:42;;;;;;;;;;;;;;;18.09;44.17;99890.34;1732296;82;20140;-57
2022/06/03 08:13:00;;;;;;;;;;;;;;;18.54;45.45;99897.54;1718491;82;20152;-51
2022/06/03 08:15:31;;;;;;;;;;;;;;;18.65;46.79;99888.20;1721290;83;20448;-50
2022/06/03 08:18:00;;;;;;;;;;;;;;;18.77;44.42;99880.58;1722210;83;20128;-44
2022/06/03 08:20:27;;;;;;;;;;;;;;;18.96;46.13;99884.45;1733729;82;20127;-50
2022/06/03 08:22:53;;;;;;;;;;;;;;;19.11;44.47;99885.85;1729430;82;20132;-54
2022/06/03 08:25:27;;;;;;;;;;;;;;;19.09;42.57;99879.80;1726841;82;20242;-50
2022/06/03 08:27:55;;;;;;;;;;;;;;;19.18;44.18;99876.88;1720072;82;20160;-49
2022/06/03 08:30:23;;;;;;;;;;;;;;;19.18;42.48;99880.88;1710015;83;20187;-51
2022/06/03 08:32:53;;;;;;;;;;;;;;;19.33;45.29;99874.27;1704403;83;20142;-49
2022/06/03 08:35:23;;;;;;;;;;;;;;;19.49;43.18;99876.52;1712432;83;20174;-43
2022/06/03 08:37:55;;;;;;;;;;;;;;;19.71;43.48;99876.06;1714686;82;20109;-51
2022/06/03 08:40:44;;;;;;;;;;;;;;;19.89;43.45;99873.69;1704098;83;20119;-53
2022/06/03 08:43:13;;;;;;;;;;;;;;;20.03;40.46;99876.03;1705486;83;20109;-46
2022/06/03 08:45:42;;;;;;;;;;;;;;;20.27;41.66;99866.39;1704994;83;20119;-45
2022/06/03 08:48:13;;;;;;;;;;;;;;;20.46;40.68;99864.78;1701964;83;20119;-55
2022/06/03 08:50:54;;;;;;;;;;;;;;;20.60;38.87;99872.43;1712380;82;20104;-56
2022/06/03 08:53:23;;;;;;;;;;;;;;;20.70;37.96;99876.49;1721009;82;20141;-48
2022/06/03 08:56:00;;;;;;;;;;;;;;;20.77;37.60;99876.80;1717959;82;20110;-54
2022/06/03 08:58:32;;;;;;;;;;;;;;;20.90;37.96;99877.39;1698813;84;20427;-42
2022/06/03 09:01:02;;;;;;;;;;;;;;;20.88;36.54;99882.91;1702418;83;20184;-43
2022/06/03 09:03:30;;;;;;;;;;;;;;;20.87;38.62;99885.20;1702392;83;20139;-44
2022/06/03 09:06:06;;;;;;;;;;;;;;;20.87;37.64;99887.05;1702414;83;20131;-42
2022/06/03 09:08:46;;;;;;;;;;;;;;;21.09;38.10;99877.95;1706654;82;20411;-43
2022/06/03 09:11:16;;;;;;;;;;;;;;;21.23;35.92;99882.06;1729308;82;20148;-44
2022/06/03 09:13:51;;;;;;;;;;;;;;;21.34;36.92;99881.92;1722520;81;20424;-46
2022/06/03 09:16:18;;;;;;;;;;;;;;;21.59;37.55;99879.69;1715815;82;20097;-48
2022/06/03 09:18:50;;;;;;;;;;;;;;;21.71;34.29;99876.39;1722675;82;20110;-49
2022/06/03 09:21:22;;;;;;;;;;;;;;;21.98;36.49;99870.30;1723190;82;20390;-46
2022/06/03 09:23:50;;;;;;;;;;;;;;;22.30;35.75;99873.11;1714105;83;20422;-46
2022/06/03 09:26:22;;;;;;;;;;;;;;;22.56;35.55;99878.16;1694364;84;20408;-47
2022/06/03 09:28:49;;;;;;;;;;;;;;;22.76;33.03;99880.26;1720626;83;20143;-46
2022/06/03 09:31:15;;;;;;;;;;;;;;;23.08;36.02;99873.59;1722960;83;20582;-46
2022/06/03 09:33:42;;;;;;;;;;;;;;;23.53;36.81;99870.02;1728287;82;20177;-48
2022/06/03 09:36:14;;;;;;;;;;;;;;;23.90;32.76;99867.67;1724703;82;20198;-48
2022/06/03 09:38:48;;;;;;;;;;;;;;;24.40;30.32;99871.50;1697784;83;20135;-45
2022/06/03 09:41:15;;;;;;;;;;;;;;;24.92;30.14;99869.20;1697740;83;20236;-49
2022/06/03 09:43:43;;;;;;;;;;;;;;;25.50;30.55;99869.34;1697810;84;20129;-50
2022/06/03 09:46:14;;;;;;;;;;;;;;;25.93;28.43;99861.45;1709356;83;20429;-50
2022/06/03 09:48:41;;;;;;;;;;;;;;;26.63;29.66;99855.89;1693141;84;20517;-49
2022/06/03 09:51:19;;;;;;;;;;;;;;;26.89;27.92;99856.13;1736190;82;20130;-47
2022/06/03 09:53:46;;;;;;;;;;;;;;;27.20;26.83;99859.63;1746049;81;20115;-45
2022/06/03 09:56:15;;;;;;;;;;;;;;;27.69;26.29;99865.20;1737102;81;20098;-50
2022/06/03 09:58:41;;;;;;;;;;;;;;;28.03;28.96;99865.25;1724246;81;20123;-46
2022/06/03 10:01:09;;;;;;;;;;;;;;;27.98;25.98;99863.63;1711507;83;20143;-50
2022/06/03 10:03:35;;;;;;;;;;;;;;;27.82;25.50;99864.59;1693880;82;20158;-47
2022/06/03 10:06:00;;;;;;;;;;;;;;;27.93;26.53;99864.69;1693605;82;20202;-46
2022/06/03 10:13:46;;;;;;;;;;;;;;;27.83;24.65;99852.73;1698571;83;20233;-48
2022/06/03 10:16:13;;;;;;;;;;;;;;;27.61;24.53;99850.92;1691171;85;20138;-49
2022/06/03 10:18:49;;;;;;;;;;;;;;;27.43;27.92;99860.16;1691141;83;20126;-49
2022/06/03 10:21:18;;;;;;;;;;;;;;;27.47;25.10;99855.24;1691075;84;20135;-54
2022/06/03 10:23:46;;;;;;;;;;;;;;;27.65;25.74;99850.88;1690960;84;20155;-47
2022/06/03 10:26:25;;;;;;;;;;;;;;;28.07;24.61;99844.09;1690729;84;20470;-43
2022/06/03 10:28:52;;;;;;;;;;;;;;;28.06;25.52;99843.78;1691652;84;20146;-44
2022/06/03 10:31:21;;;;;;;;;;;;;;;28.01;25.11;99834.86;1691504;84;20143;-45
2022/06/03 10:33:54;;;;;;;;;;;;;;;28.17;24.84;99839.26;1691271;84;20446;-47
2022/06/03 10:36:24;;;;;;;;;;;;;;;28.31;24.61;99834.36;1690505;84;20569;-47
2022/06/03 10:38:51;;;;;;;;;;;;;;;28.84;26.64;99830.16;1694870;84;20162;-46
2022/06/03 10:41:17;;;;;;;;;;;;;;;29.04;25.56;99833.63;1691496;83;20204;-44
2022/06/03 10:43:43;;;;;;;;;;;;;;;29.44;23.08;99836.75;1691574;83;20143;-48
2022/06/03 10:46:11;;;;;;;;;;;;;;;29.49;22.92;99838.38;1691552;84;20187;-47
2022/06/03 10:48:37;;;;;;;;;;;;;;;29.27;23.88;99837.02;1691440;84;20179;-47
2022/06/03 10:51:18;;;;;;;;;;;;;;;28.80;23.91;99830.75;1691554;84;20183;-46
2022/06/03 11:02:03;;;;;;;;;;;;;;;29.24;23.70;99815.73;1674847;83;20175;-46
2022/06/03 11:04:37;;;;;;;;;;;;;;;29.54;24.47;99809.31;1691447;83;20471;-45
2022/06/03 11:07:05;;;;;;;;;;;;;;;29.38;23.17;99811.28;1691395;85;20207;-44
2022/06/03 11:09:31;;;;;;;;;;;;;;;29.76;23.95;99812.85;1689380;84;20142;-46
2022/06/03 11:12:02;;;;;;;;;;;;;;;30.04;22.57;99810.14;1691404;84;20134;-47
2022/06/03 11:14:32;;;;;;;;;;;;;;;30.42;22.02;99801.61;1691337;85;20435;-47
2022/06/03 11:17:19;;;;;;;;;;;;;;;30.45;21.66;99787.62;1691544;84;20162;-47
2022/06/03 11:19:48;;;;;;;;;;;;;;;30.84;22.33;99790.69;1691552;84;20143;-48
2022/06/03 11:22:23;;;;;;;;;;;;;;;31.32;22.31;99791.41;1698748;83;20116;-45
2022/06/03 11:24:53;;;;;;;;;;;;;;;31.76;21.58;99789.98;1723808;82;20315;-50
2022/06/03 11:27:22;;;;;;;;;;;;;;;31.29;20.00;99798.63;1708426;83;20176;-46
2022/06/03 11:29:49;;;;;;;;;;;;;;;31.76;21.28;99794.55;1692450;83;20167;-47
2022/06/03 11:32:17;;;;;;;;;;;;;;;31.93;20.56;99794.97;1699001;84;20193;-53
2022/06/03 11:34:54;;;;;;;;;;;;;;;31.99;23.01;99790.02;1695404;83;20158;-49
2022/06/03 11:37:27;;;;;;;;;;;;;;;32.21;21.32;99784.35;1694953;83;20161;-46
2022/06/03 11:39:56;;;;;;;;;;;;;;;32.25;21.17;99781.50;1699028;83;20452;-57
2022/06/03 11:42:43;;;;;;;;;;;;;;;32.52;19.99;99768.62;1685626;84;20182;-54
2022/06/03 11:45:18;;;;;;;;;;;;;;;32.55;20.00;99770.09;1694407;83;20431;-49
2022/06/03 11:47:53;;;;;;;;;;;;;;;33.10;20.56;99775.84;1697781;83;20568;-47
2022/06/03 11:50:21;;;;;;;;;;;;;;;32.85;19.12;99764.37;1688923;82;20440;-50
2022/06/03 11:52:49;;;;;;;;;;;;;;;33.06;19.77;99768.64;1693190;83;20158;-44
2022/06/03 11:55:15;;;;;;;;;;;;;;;33.19;19.57;99769.11;1720826;83;20441;-45
2022/06/03 11:57:46;;;;;;;;;;;;;;;33.02;19.35;99769.29;1728096;82;20163;-44
2022/06/03 12:00:14;;;;;;;;;;;;;;;32.97;20.00;99765.88;1723575;82;20220;-37
2022/06/03 12:03:01;;;;;;;;;;;;;;;32.89;19.91;99764.27;1726672;82;20140;-47
2022/06/03 12:05:44;;;;;;;;;;;;;;;32.95;19.39;99768.00;1725536;82;20456;-45
2022/06/03 12:08:20;;;;;;;;;;;;;;;32.76;19.91;99763.50;1725138;82;20136;-43
2022/06/03 12:11:09;;;;;;;;;;;;;;;32.34;20.12;99759.80;1722300;82;20131;-45
2022/06/03 12:13:35;;;;;;;;;;;;;;;32.04;20.01;99754.07;1721101;82;20156;-48
2022/06/03 12:16:13;;;;;;;;;;;;;;;31.63;21.53;99747.83;1722688;83;20124;-47
2022/06/03 12:19:01;;;;;;;;;;;;;;;31.72;21.06;99749.28;1723877;82;20472;-48
2022/06/03 12:21:33;;;;;;;;;;;;;;;31.49;21.16;99749.75;1723068;82;20166;-56
2022/06/03 12:24:21;;;;;;;;;;;;;;;31.37;20.99;99755.47;1727017;82;20132;-40
2022/06/03 12:26:48;;;;;;;;;;;;;;;30.80;21.45;99750.37;1722909;82;20207;-46
2022/06/03 12:29:23;;;;;;;;;;;;;;;30.07;20.64;99744.66;1725757;82;20131;-50
2022/06/03 12:31:49;;;;;;;;;;;;;;;29.96;21.86;99742.49;1722792;82;20210;-48
2022/06/03 12:34:23;;;;;;;;;;;;;;;29.09;22.61;99742.66;1723295;82;20527;-42
2022/06/03 12:36:53;;;;;;;;;;;;;;;28.99;23.07;99731.30;1728100;82;20143;-46
2022/06/03 12:39:25;;;;;;;;;;;;;;;28.88;23.56;99722.35;1723948;82;20132;-45
2022/06/03 12:41:57;;;;;;;;;;;;;;;28.79;24.37;99731.63;1719992;82;20422;-45
2022/06/03 12:44:27;;;;;;;;;;;;;;;28.70;24.12;99726.84;1712757;83;20101;-41
2022/06/03 12:46:54;;;;;;;;;;;;;;;28.47;23.49;99724.27;1701962;83;20421;-43
2022/06/03 12:49:36;;;;;;;;;;;;;;;28.41;24.13;99732.63;1712563;83;20124;-45
2022/06/03 12:52:08;;;;;;;;;;;;;;;28.27;24.80;99727.59;1713265;83;20106;-41
2022/06/03 12:54:37;;;;;;;;;;;;;;;28.20;25.27;99719.91;1687740;83;20101;-45
2022/06/03 12:57:09;;;;;;;;;;;;;;;28.01;25.43;99725.38;1712456;83;20426;-44
2022/06/03 12:59:47;;;;;;;;;;;;;;;27.64;25.76;99714.97;1712066;83;20128;-44
2022/06/03 13:02:19;;;;;;;;;;;;;;;27.10;25.53;99722.69;1724615;83;20141;-43
2022/06/03 13:04:58;;;;;;;;;;;;;;;26.82;26.08;99718.37;1717176;83;20157;-47
2022/06/03 13:07:30;;;;;;;;;;;;;;;26.77;26.44;99717.55;1713431;83;20110;-46
2022/06/03 13:10:05;;;;;;;;;;;;;;;26.87;26.40;99711.08;1716738;83;20158;-44
2022/06/03 13:12:34;;;;;;;;;;;;;;;26.53;25.98;99710.44;1710498;83;20234;-44
2022/06/03 13:15:24;;;;;;;;;;;;;;;26.56;27.02;99706.53;1711655;83;20159;-43
2022/06/03 13:17:58;;;;;;;;;;;;;;;26.62;26.69;99703.17;1716419;83;20109;-44
2022/06/03 13:20:39;;;;;;;;;;;;;;;26.68;26.82;99696.22;1712928;83;20133;-46
2022/06/03 13:23:27;;;;;;;;;;;;;;;26.78;25.91;99703.58;1711611;83;20133;-43
2022/06/03 13:25:54;;;;;;;;;;;;;;;26.82;27.09;99694.09;1710374;83;20110;-46
2022/06/03 13:28:27;;;;;;;;;;;;;;;26.96;26.17;99683.00;1716277;83;20097;-44
2022/06/03 13:31:05;;;;;;;;;;;;;;;26.95;26.48;99688.09;1715169;83;20141;-48
2022/06/03 13:33:31;;;;;;;;;;;;;;;27.03;26.68;99679.91;1705619;83;20145;-47
2022/06/03 13:36:07;;;;;;;;;;;;;;;26.81;26.51;99684.30;1689987;82;20446;-43
2022/06/03 13:38:44;;;;;;;;;;;;;;;26.46;27.26;99674.93;1689561;83;20167;-45
2022/06/03 13:44:11;;;;;;;;;;;;;;;25.99;29.18;99674.00;1695863;83;20202;-41
2022/06/03 13:46:38;;;;;;;;;;;;;;;26.05;28.57;99666.58;1692322;83;20166;-49
2022/06/03 13:49:24;;;;;;;;;;;;;;;26.15;28.01;99662.30;1691459;83;20475;-42
2022/06/03 13:51:52;;;;;;;;;;;;;;;26.10;28.03;99656.59;1694492;82;20197;-42
2022/06/03 13:54:40;;;;;;;;;;;;;;;26.15;28.85;99655.05;1689509;83;20183;-42
2022/06/03 13:57:19;;;;;;;;;;;;;;;26.34;28.93;99654.27;1697068;83;20162;-43
2022/06/03 13:59:45;;;;;;;;;;;;;;;26.29;27.75;99646.72;1693882;83;20154;-45
2022/06/03 14:02:35;;;;;;;;;;;;;;;26.43;27.83;99650.00;1691358;83;20143;-45
2022/06/03 14:05:15;;;;;;;;;;;;;;;26.54;28.87;99639.80;1689875;83;20459;-43
2022/06/03 14:07:44;;;;;;;;;;;;;;;26.64;27.47;99635.05;1693063;83;20143;-43
2022/06/03 14:10:18;;;;;;;;;;;;;;;26.72;29.57;99634.96;1693721;83;20147;-45
2022/06/03 14:12:56;;;;;;;;;;;;;;;26.82;29.04;99632.03;1695212;83;20478;-45
2022/06/03 14:15:28;;;;;;;;;;;;;;;26.94;28.67;99627.02;1694656;83;20158;-44
2022/06/03 14:17:58;;;;;;;;;;;;;;;26.95;29.00;99621.45;1694086;83;20185;-44
2022/06/03 14:20:28;;;;;;;;;;;;;;;26.78;27.51;99619.41;1691832;83;20191;-47